Time;durP1;ratioP1;P1;durP2;ratioP2;P2;SDS_P1;SDS_P2;PMS_P1;PMS_P2;Temp;Humidity;BMP_temperature;BMP_pressure;BME280_temperature;BME280_humidity;BME280_pressure;Samples;Min_cycle;Max_cycle;Signal;HPM_P1;HPM_P2
2023/09/04 00:01:11;;;;;;;0.93;0.93;;;;;15.70;97028.00;;;;5136445;27;20194;-62
2023/09/04 00:03:39;;;;;;;0.70;0.70;;;;;15.60;97035.00;;;;5136550;27;20216;-62
2023/09/04 00:06:06;;;;;;;1.00;1.00;;;;;15.50;97034.00;;;;5136290;27;20213;-62
2023/09/04 00:08:35;;;;;;;0.97;0.97;;;;;15.40;97033.00;;;;5136753;27;20216;-62
2023/09/04 00:11:02;;;;;;;0.80;0.80;;;;;15.40;97029.00;;;;5136970;27;20193;-62
2023/09/04 00:13:30;;;;;;;0.50;0.50;;;;;15.20;97034.00;;;;5136242;27;20675;-62
2023/09/04 00:15:57;;;;;;;0.80;0.80;;;;;15.00;97028.00;;;;5136098;27;20660;-62
2023/09/04 00:18:25;;;;;;;0.60;0.60;;;;;15.10;97032.00;;;;5136469;27;20178;-62
2023/09/04 00:20:53;;;;;;;0.83;0.83;;;;;15.20;97028.00;;;;5135998;27;20193;-62
2023/09/04 00:23:20;;;;;;;0.93;0.93;;;;;15.30;97029.00;;;;5136016;27;20220;-62
2023/09/04 00:25:49;;;;;;;0.70;0.70;;;;;15.30;97017.00;;;;5135866;27;20775;-62
2023/09/04 00:28:18;;;;;;;0.67;0.67;;;;;15.20;97019.00;;;;5135751;27;20293;-62
2023/09/04 00:30:45;;;;;;;0.70;0.70;;;;;15.30;97023.00;;;;5136475;27;20193;-62
2023/09/04 00:33:13;;;;;;;25.57;1.10;;;;;15.40;97014.00;;;;5136288;27;20190;-62
2023/09/04 00:35:40;;;;;;;0.70;0.70;;;;;15.30;97016.00;;;;5135749;27;20657;-62
2023/09/04 00:38:07;;;;;;;0.90;0.90;;;;;15.40;97003.00;;;;5135679;27;20197;-62
2023/09/04 00:40:35;;;;;;;0.77;0.77;;;;;15.30;97016.00;;;;5135791;27;20525;-62
2023/09/04 00:43:04;;;;;;;0.93;0.93;;;;;15.30;97010.00;;;;5135606;27;20234;-62
2023/09/04 00:45:32;;;;;;;0.60;0.60;;;;;15.20;97015.00;;;;5135575;27;20189;-62
2023/09/04 00:48:00;;;;;;;0.80;0.80;;;;;15.30;97003.00;;;;5135381;27;20213;-62
2023/09/04 00:50:28;;;;;;;0.70;0.70;;;;;15.30;97006.00;;;;5135342;27;20209;-62
2023/09/04 00:53:03;;;;;;;0.87;0.87;;;;;15.20;97002.00;;;;5135651;27;20528;-62
2023/09/04 00:55:30;;;;;;;1.17;1.07;;;;;15.20;97005.00;;;;5135866;27;20193;-62
2023/09/04 00:57:58;;;;;;;1.33;1.23;;;;;15.30;97004.00;;;;5135361;27;20220;-62
2023/09/04 01:00:27;;;;;;;2.60;1.10;;;;;15.30;97003.00;;;;5135842;27;20234;-62
2023/09/04 01:02:58;;;;;;;19.43;1.17;;;;;15.20;97005.00;;;;5135679;27;20192;-62
2023/09/04 01:05:28;;;;;;;0.80;0.80;;;;;15.10;97005.00;;;;5135231;27;20200;-62
2023/09/04 01:07:55;;;;;;;11.63;0.97;;;;;15.20;97004.00;;;;5135124;27;20205;-62
2023/09/04 01:10:23;;;;;;;2.03;0.93;;;;;15.10;96997.00;;;;5135064;27;20262;-62
2023/09/04 01:12:55;;;;;;;1.27;1.23;;;;;15.10;96998.00;;;;5135042;27;20189;-62
2023/09/04 01:15:24;;;;;;;0.67;0.67;;;;;15.10;96999.00;;;;5135245;27;20181;-62
2023/09/04 01:17:54;;;;;;;0.90;0.90;;;;;15.20;96998.00;;;;5134847;27;20637;-62
2023/09/04 01:20:26;;;;;;;0.53;0.53;;;;;15.30;97000.00;;;;5134834;27;20185;-62
2023/09/04 01:22:54;;;;;;;0.60;0.60;;;;;15.30;96988.00;;;;5135373;27;20178;-62
2023/09/04 01:25:22;;;;;;;1.37;1.27;;;;;15.00;96989.00;;;;5134713;27;20245;-62
2023/09/04 01:27:56;;;;;;;0.63;0.63;;;;;14.80;96997.00;;;;5134815;27;20213;-62
2023/09/04 01:30:33;;;;;;;0.60;0.60;;;;;14.80;97001.00;;;;5134701;27;20225;-62
2023/09/04 01:33:05;;;;;;;0.60;0.60;;;;;14.80;97004.00;;;;5134862;27;20215;-62
2023/09/04 01:35:35;;;;;;;0.90;0.90;;;;;14.90;97002.00;;;;5134883;27;20177;-61
2023/09/04 01:38:04;;;;;;;0.70;0.70;;;;;14.80;97003.00;;;;5134628;27;20205;-61
2023/09/04 01:40:32;;;;;;;0.50;0.50;;;;;14.80;96997.00;;;;5134970;27;20189;-61
2023/09/04 01:42:59;;;;;;;0.70;0.70;;;;;14.80;96997.00;;;;5134442;27;20201;-61
2023/09/04 01:45:26;;;;;;;0.70;0.70;;;;;14.80;96992.00;;;;5134447;27;20669;-61
2023/09/04 01:47:53;;;;;;;0.90;0.90;;;;;14.80;96989.00;;;;5134384;27;20210;-61
2023/09/04 01:50:21;;;;;;;0.70;0.70;;;;;14.60;96987.00;;;;5134836;27;20224;-61
2023/09/04 01:52:50;;;;;;;1.07;0.97;;;;;14.60;96991.00;;;;5134819;27;20589;-61
2023/09/04 01:55:17;;;;;;;1.00;1.00;;;;;14.60;96984.00;;;;5134457;27;20193;-61
2023/09/04 01:57:44;;;;;;;0.93;0.93;;;;;14.60;96987.00;;;;5133196;27;20316;-61
2023/09/04 02:00:13;;;;;;;0.97;0.90;;;;;14.60;96978.00;;;;5134263;27;20185;-61
2023/09/04 02:02:40;;;;;;;0.83;0.83;;;;;14.70;96980.00;;;;5134423;27;20296;-61
2023/09/04 02:05:08;;;;;;;0.77;0.77;;;;;14.60;96978.00;;;;5134159;27;20679;-61
2023/09/04 02:07:35;;;;;;;0.87;0.87;;;;;14.60;96978.00;;;;5134362;27;20216;-62
2023/09/04 02:10:05;;;;;;;0.70;0.70;;;;;14.50;96974.00;;;;5133997;27;20213;-62
2023/09/04 02:12:32;;;;;;;1.07;1.07;;;;;14.50;96969.00;;;;5134532;27;20190;-61
2023/09/04 02:14:59;;;;;;;1.00;1.00;;;;;14.50;96970.00;;;;5134042;27;20197;-61
2023/09/04 02:17:27;;;;;;;0.90;0.90;;;;;14.50;96975.00;;;;5133895;27;20209;-61
2023/09/04 02:19:54;;;;;;;0.70;0.70;;;;;14.50;96971.00;;;;5134041;27;20194;-61
2023/09/04 02:22:21;;;;;;;0.83;0.83;;;;;14.40;96979.00;;;;5133992;27;20200;-61
2023/09/04 02:24:49;;;;;;;1.60;0.70;;;;;14.40;96979.00;;;;5134151;28;20660;-61
2023/09/04 02:27:17;;;;;;;0.80;0.80;;;;;14.40;96969.00;;;;5133850;28;20684;-61
2023/09/04 02:29:45;;;;;;;0.73;0.73;;;;;14.30;96976.00;;;;5133819;28;20244;-61
2023/09/04 02:32:12;;;;;;;1.30;1.30;;;;;14.30;96979.00;;;;5133799;28;20536;-61
2023/09/04 02:34:40;;;;;;;0.90;0.90;;;;;14.20;96981.00;;;;5133851;28;20736;-61
2023/09/04 02:37:07;;;;;;;0.70;0.70;;;;;14.20;96962.00;;;;5134339;28;20236;-61
2023/09/04 02:39:36;;;;;;;0.77;0.77;;;;;14.30;96972.00;;;;5134033;28;20234;-61
2023/09/04 02:42:03;;;;;;;1.30;0.83;;;;;14.20;96972.00;;;;5134194;28;20592;-61
2023/09/04 02:44:32;;;;;;;0.80;0.80;;;;;14.20;96972.00;;;;5134281;28;20337;-61
2023/09/04 02:46:59;;;;;;;1.20;1.20;;;;;14.20;96962.00;;;;5133654;28;20217;-61
2023/09/04 02:49:26;;;;;;;1.30;1.20;;;;;14.20;96967.00;;;;5133679;28;20221;-61
2023/09/04 02:51:54;;;;;;;0.80;0.80;;;;;14.20;96967.00;;;;5133928;28;20694;-61
2023/09/04 02:54:21;;;;;;;0.80;0.80;;;;;14.20;96965.00;;;;5133637;28;20188;-62
2023/09/04 02:56:48;;;;;;;1.47;1.10;;;;;14.20;96967.00;;;;5133607;28;20224;-62
2023/09/04 02:59:16;;;;;;;1.07;1.07;;;;;14.10;96961.00;;;;5134190;28;20185;-61
2023/09/04 03:01:44;;;;;;;0.60;0.60;;;;;14.10;96959.00;;;;5133677;28;20193;-61
2023/09/04 03:04:12;;;;;;;0.90;0.90;;;;;14.10;96971.00;;;;5133447;28;20525;-62
2023/09/04 03:06:41;;;;;;;0.60;0.60;;;;;14.20;96970.00;;;;5133545;28;20213;-62
2023/09/04 03:09:08;;;;;;;0.90;0.90;;;;;14.10;96971.00;;;;5133940;28;20193;-61
2023/09/04 03:11:36;;;;;;;0.60;0.60;;;;;14.00;96972.00;;;;5133898;28;20194;-61
2023/09/04 03:14:03;;;;;;;0.50;0.50;;;;;14.00;96973.00;;;;5133675;28;20541;-61
2023/09/04 03:16:30;;;;;;;0.70;0.70;;;;;13.90;96965.00;;;;5133746;28;20711;-61
2023/09/04 03:18:59;;;;;;;0.70;0.70;;;;;13.80;96963.00;;;;5133307;28;20200;-61
2023/09/04 03:21:26;;;;;;;0.60;0.60;;;;;13.80;96952.00;;;;5133539;28;20683;-62
2023/09/04 03:23:54;;;;;;;0.83;0.83;;;;;13.90;96968.00;;;;5133398;28;20186;-61
2023/09/04 03:26:21;;;;;;;0.80;0.80;;;;;13.80;96962.00;;;;5133453;28;20254;-62
2023/09/04 03:28:48;;;;;;;0.83;0.83;;;;;13.90;96967.00;;;;5133253;28;20255;-62
2023/09/04 03:31:17;;;;;;;0.90;0.90;;;;;13.80;96970.00;;;;5134494;27;20217;-62
2023/09/04 03:33:44;;;;;;;0.87;0.87;;;;;13.80;96972.00;;;;5137051;27;20216;-62
2023/09/04 03:36:13;;;;;;;0.60;0.60;;;;;13.80;96968.00;;;;5137424;27;20592;-62
2023/09/04 03:38:40;;;;;;;0.97;0.97;;;;;13.90;96974.00;;;;5136811;27;20193;-62
2023/09/04 03:41:08;;;;;;;1.10;1.10;;;;;14.00;96965.00;;;;5137212;27;20242;-62
2023/09/04 03:43:35;;;;;;;0.80;0.80;;;;;13.90;96972.00;;;;5136969;27;20196;-63
2023/09/04 03:46:02;;;;;;;1.13;1.13;;;;;13.80;96965.00;;;;5136871;27;20551;-62
2023/09/04 03:48:30;;;;;;;1.03;1.03;;;;;13.60;96969.00;;;;5137135;27;20565;-62
2023/09/04 03:51:00;;;;;;;0.83;0.83;;;;;13.60;96973.00;;;;5137156;27;20240;-62
2023/09/04 03:53:29;;;;;;;0.80;0.80;;;;;13.70;96969.00;;;;5135614;27;20652;-63
2023/09/04 03:56:03;;;;;;;0.70;0.70;;;;;13.80;96970.00;;;;5136700;27;20190;-62
2023/09/04 03:58:31;;;;;;;1.33;1.33;;;;;13.80;96980.00;;;;5136970;27;20184;-62
2023/09/04 04:00:58;;;;;;;1.30;1.30;;;;;13.80;96969.00;;;;5136637;27;20211;-62
2023/09/04 04:03:26;;;;;;;0.93;0.93;;;;;13.80;96984.00;;;;5136741;27;20190;-62
2023/09/04 04:05:53;;;;;;;0.97;0.97;;;;;13.80;96976.00;;;;5136633;27;20208;-62
2023/09/04 04:08:21;;;;;;;0.60;0.60;;;;;13.70;96983.00;;;;5136598;27;20592;-63
2023/09/04 04:10:49;;;;;;;0.77;0.77;;;;;13.70;96983.00;;;;5136440;27;20220;-62
2023/09/04 04:13:17;;;;;;;0.60;0.60;;;;;13.70;96979.00;;;;5136463;27;20193;-62
2023/09/04 04:15:45;;;;;;;0.70;0.70;;;;;13.60;96987.00;;;;5136181;27;20189;-63
2023/09/04 04:18:14;;;;;;;0.80;0.80;;;;;13.60;97000.00;;;;5136392;27;20195;-62
2023/09/04 04:20:42;;;;;;;0.60;0.60;;;;;13.60;96999.00;;;;5136137;27;20188;-62
2023/09/04 04:23:09;;;;;;;0.53;0.53;;;;;13.60;96992.00;;;;5136603;27;20276;-62
2023/09/04 04:25:36;;;;;;;1.33;1.27;;;;;13.60;96986.00;;;;5136209;27;20656;-62
2023/09/04 04:28:06;;;;;;;0.70;0.70;;;;;13.50;96987.00;;;;5135956;27;20565;-63
2023/09/04 04:30:34;;;;;;;1.50;1.40;;;;;13.50;96992.00;;;;5136255;27;20213;-61
2023/09/04 04:33:01;;;;;;;0.93;0.93;;;;;13.60;96982.00;;;;5135894;27;20196;-60
2023/09/04 04:35:30;;;;;;;0.97;0.97;;;;;13.60;96991.00;;;;5136248;27;20186;-60
2023/09/04 04:37:57;;;;;;;0.87;0.87;;;;;13.70;96993.00;;;;5135756;27;20266;-60
2023/09/04 04:40:25;;;;;;;1.43;1.07;;;;;13.80;96986.00;;;;5135886;27;20212;-61
2023/09/04 04:42:53;;;;;;;0.70;0.70;;;;;13.80;96990.00;;;;5135268;27;20259;-61
2023/09/04 04:45:21;;;;;;;0.80;0.80;;;;;13.80;96986.00;;;;5135683;27;20198;-61
2023/09/04 04:47:49;;;;;;;1.00;1.00;;;;;13.70;96988.00;;;;5135513;27;20209;-61
2023/09/04 04:50:16;;;;;;;0.70;0.70;;;;;13.70;96996.00;;;;5135459;27;20209;-61
2023/09/04 04:52:44;;;;;;;0.90;0.90;;;;;13.70;96987.00;;;;5136520;27;20185;-61
2023/09/04 04:55:11;;;;;;;0.67;0.67;;;;;13.60;96991.00;;;;5135433;27;20246;-61
2023/09/04 04:57:39;;;;;;;0.93;0.93;;;;;13.70;96993.00;;;;5135422;27;20213;-61
2023/09/04 05:00:08;;;;;;;0.60;0.60;;;;;13.70;96986.00;;;;5135936;27;20182;-61
2023/09/04 05:02:37;;;;;;;0.80;0.80;;;;;13.70;96988.00;;;;5135798;27;20228;-62
2023/09/04 05:05:05;;;;;;;1.23;1.23;;;;;13.60;96987.00;;;;5135235;27;20208;-62
2023/09/04 05:07:32;;;;;;;0.60;0.60;;;;;13.60;96986.00;;;;5135144;27;20213;-62
2023/09/04 05:09:59;;;;;;;1.37;1.27;;;;;13.50;96980.00;;;;5135414;27;20221;-62
2023/09/04 05:12:27;;;;;;;0.80;0.80;;;;;13.40;96978.00;;;;5135283;27;20190;-62
2023/09/04 05:14:55;;;;;;;0.77;0.77;;;;;13.50;96985.00;;;;5135126;27;20662;-62
2023/09/04 05:17:22;;;;;;;0.93;0.90;;;;;13.50;96976.00;;;;5135162;27;20209;-62
2023/09/04 05:19:51;;;;;;;0.87;0.87;;;;;13.50;96973.00;;;;5134964;27;20574;-62
2023/09/04 05:22:18;;;;;;;0.90;0.90;;;;;13.40;96972.00;;;;5135453;27;20653;-62
2023/09/04 05:24:45;;;;;;;1.00;1.00;;;;;13.50;96969.00;;;;5134983;27;20628;-62
2023/09/04 05:27:13;;;;;;;1.00;1.00;;;;;13.40;96972.00;;;;5134696;27;20209;-62
2023/09/04 05:29:40;;;;;;;1.63;1.53;;;;;13.60;96963.00;;;;5134824;27;20193;-62
2023/09/04 05:32:08;;;;;;;1.10;1.10;;;;;13.70;96978.00;;;;5134838;27;20189;-62
2023/09/04 05:34:39;;;;;;;3.63;1.30;;;;;13.60;96966.00;;;;5134699;27;20189;-62
2023/09/04 05:37:08;;;;;;;1.27;1.27;;;;;13.50;96957.00;;;;5135218;27;20648;-62
2023/09/04 05:39:35;;;;;;;0.83;0.83;;;;;13.40;96970.00;;;;5134664;27;20246;-62
2023/09/04 05:42:03;;;;;;;1.00;1.00;;;;;13.50;96964.00;;;;5134620;27;20185;-62
2023/09/04 05:44:31;;;;;;;1.83;1.73;;;;;13.50;96965.00;;;;5133541;27;20723;-62
2023/09/04 05:46:58;;;;;;;1.63;1.53;;;;;13.60;96960.00;;;;5134515;27;20217;-62
2023/09/04 05:49:25;;;;;;;1.43;1.33;;;;;13.60;96962.00;;;;5134695;27;20193;-62
2023/09/04 05:51:54;;;;;;;1.50;1.40;;;;;13.60;96958.00;;;;5134306;27;20213;-62
2023/09/04 05:54:23;;;;;;;1.10;1.07;;;;;13.70;96954.00;;;;5134029;27;20250;-62
2023/09/04 05:56:51;;;;;;;0.90;0.90;;;;;13.70;96959.00;;;;5134359;27;20269;-62
2023/09/04 05:59:18;;;;;;;1.50;1.40;;;;;13.80;96968.00;;;;5134321;27;20193;-62
2023/09/04 06:01:45;;;;;;;1.13;1.07;;;;;13.80;96966.00;;;;5134608;27;20192;-62
2023/09/04 06:04:13;;;;;;;0.97;0.97;;;;;13.90;96972.00;;;;5134354;27;20629;-62
2023/09/04 06:06:40;;;;;;;1.00;1.00;;;;;14.00;96969.00;;;;5134084;27;20683;-62
2023/09/04 06:09:08;;;;;;;1.53;1.43;;;;;14.00;96971.00;;;;5134144;27;20197;-62
2023/09/04 06:11:37;;;;;;;1.67;1.57;;;;;14.10;96972.00;;;;5134000;27;20213;-62
2023/09/04 06:14:04;;;;;;;0.77;0.77;;;;;14.20;96970.00;;;;5133924;27;20201;-62
2023/09/04 06:16:33;;;;;;;1.20;1.20;;;;;14.30;96975.00;;;;5131344;27;20209;-62
2023/09/04 06:19:01;;;;;;;0.90;0.83;;;;;14.40;96962.00;;;;5128810;27;20220;-63
2023/09/04 06:21:28;;;;;;;1.30;1.20;;;;;14.50;96967.00;;;;5132756;27;20194;-63
2023/09/04 06:23:55;;;;;;;0.70;0.70;;;;;14.60;96966.00;;;;5131723;27;20543;-63
2023/09/04 06:26:23;;;;;;;1.20;1.20;;;;;14.70;96966.00;;;;5132618;28;20246;-63
2023/09/04 06:28:52;;;;;;;1.23;1.23;;;;;14.80;96971.00;;;;5132291;28;20654;-63
2023/09/04 06:31:19;;;;;;;0.90;0.90;;;;;14.90;96970.00;;;;5132324;28;20213;-63
2023/09/04 06:33:47;;;;;;;1.10;1.10;;;;;15.00;96970.00;;;;5129090;28;20204;-62
2023/09/04 06:36:15;;;;;;;1.43;1.43;;;;;15.10;96962.00;;;;5132243;28;20578;-62
2023/09/04 06:38:45;;;;;;;1.27;1.20;;;;;15.10;96973.00;;;;5130568;28;20197;-62
2023/09/04 06:41:13;;;;;;;0.80;0.80;;;;;15.00;96973.00;;;;5131913;28;20208;-62
2023/09/04 06:43:40;;;;;;;1.13;1.13;;;;;14.90;96970.00;;;;5127978;28;20783;-62
2023/09/04 06:46:09;;;;;;;0.67;0.67;;;;;15.00;96971.00;;;;5130866;28;20233;-62
2023/09/04 06:48:36;;;;;;;1.37;1.30;;;;;15.00;96966.00;;;;5130404;28;20661;-62
2023/09/04 06:51:03;;;;;;;0.70;0.70;;;;;15.20;96968.00;;;;5131188;28;20308;-62
2023/09/04 06:53:31;;;;;;;6.83;1.00;;;;;15.30;96959.00;;;;5130749;28;20216;-62
2023/09/04 06:55:58;;;;;;;1.00;1.00;;;;;15.40;96968.00;;;;5130915;28;20217;-62
2023/09/04 06:58:26;;;;;;;1.47;1.13;;;;;15.60;96970.00;;;;5132324;28;20299;-62
2023/09/04 07:00:54;;;;;;;1.63;0.83;;;;;15.70;96959.00;;;;5130574;28;20238;-62
2023/09/04 07:03:23;;;;;;;1.57;0.93;;;;;15.80;96960.00;;;;5131853;28;20668;-62
2023/09/04 07:05:50;;;;;;;0.90;0.90;;;;;15.80;96965.00;;;;5132899;27;20202;-62
2023/09/04 07:08:17;;;;;;;0.67;0.67;;;;;15.90;96956.00;;;;5135684;27;20204;-62
2023/09/04 07:10:45;;;;;;;0.90;0.90;;;;;15.90;96956.00;;;;5134312;27;20232;-62
2023/09/04 07:13:12;;;;;;;0.93;0.93;;;;;15.90;96961.00;;;;5135674;27;20199;-62
2023/09/04 07:15:40;;;;;;;0.97;0.97;;;;;15.90;96965.00;;;;5135072;27;20189;-62
2023/09/04 07:18:08;;;;;;;0.80;0.80;;;;;16.10;96962.00;;;;5135312;27;20201;-62
2023/09/04 07:20:37;;;;;;;1.20;1.03;;;;;16.30;96958.00;;;;5135093;27;20190;-62
2023/09/04 07:23:04;;;;;;;1.23;1.13;;;;;16.30;96951.00;;;;5135727;27;20193;-62
2023/09/04 07:25:32;;;;;;;0.83;0.83;;;;;16.40;96945.00;;;;5135418;27;20211;-62
2023/09/04 07:28:00;;;;;;;1.00;1.00;;;;;16.50;96950.00;;;;5135456;27;20269;-62
2023/09/04 07:30:27;;;;;;;0.80;0.80;;;;;16.60;96954.00;;;;5135187;27;20197;-62
2023/09/04 07:32:55;;;;;;;1.00;1.00;;;;;16.80;96948.00;;;;5134255;27;20230;-62
2023/09/04 07:35:22;;;;;;;0.77;0.77;;;;;17.00;96948.00;;;;5135022;27;20200;-62
2023/09/04 07:37:51;;;;;;;2.10;1.33;;;;;17.00;96950.00;;;;5134354;27;20220;-62
2023/09/04 07:40:18;;;;;;;1.53;1.43;;;;;17.20;96950.00;;;;5135004;27;20537;-62
2023/09/04 07:42:46;;;;;;;1.13;1.07;;;;;17.10;96946.00;;;;5132706;27;20240;-62
2023/09/04 07:45:15;;;;;;;0.80;0.80;;;;;17.20;96951.00;;;;5134405;27;20644;-62
2023/09/04 07:47:42;;;;;;;3.50;1.63;;;;;17.40;96957.00;;;;5133813;27;20217;-62
2023/09/04 07:50:11;;;;;;;1.30;1.20;;;;;17.30;96959.00;;;;5134143;27;20197;-62
2023/09/04 07:52:38;;;;;;;1.03;1.03;;;;;17.50;96955.00;;;;5134442;27;20213;-61
2023/09/04 07:55:09;;;;;;;1.00;1.00;;;;;17.60;96947.00;;;;5134528;27;20656;-61
2023/09/04 07:57:37;;;;;;;5.50;1.87;;;;;17.70;96952.00;;;;5133009;27;20233;-61
2023/09/04 08:00:05;;;;;;;1.33;1.17;;;;;17.90;96943.00;;;;5134357;27;20228;-62
2023/09/04 08:02:32;;;;;;;1.53;1.43;;;;;17.90;96950.00;;;;5129715;27;20194;-62
2023/09/04 08:05:00;;;;;;;0.83;0.83;;;;;18.20;96956.00;;;;5135373;27;20220;-61
2023/09/04 08:07:28;;;;;;;1.30;1.30;;;;;18.20;96948.00;;;;5134122;27;20217;-61
2023/09/04 08:09:56;;;;;;;1.10;1.10;;;;;18.40;96950.00;;;;5134098;27;20579;-62
2023/09/04 08:12:24;;;;;;;1.17;1.17;;;;;18.60;96946.00;;;;5135320;27;20213;-63
2023/09/04 08:14:52;;;;;;;0.87;0.87;;;;;18.80;96950.00;;;;5129976;27;20193;-62
2023/09/04 08:17:19;;;;;;;1.07;1.07;;;;;18.80;96944.00;;;;5133081;27;20213;-62
2023/09/04 08:19:46;;;;;;;0.63;0.63;;;;;19.00;96946.00;;;;5135022;27;20208;-62
2023/09/04 08:22:14;;;;;;;0.70;0.70;;;;;19.20;96951.00;;;;5133927;27;20189;-62
2023/09/04 08:24:41;;;;;;;0.70;0.70;;;;;19.50;96946.00;;;;5134939;27;20193;-62
2023/09/04 08:27:09;;;;;;;1.47;1.37;;;;;19.50;96951.00;;;;5134222;27;20213;-62
2023/09/04 08:29:39;;;;;;;0.90;0.90;;;;;19.60;96951.00;;;;5134646;27;20197;-62
2023/09/04 08:32:07;;;;;;;0.67;0.67;;;;;19.80;96942.00;;;;5134077;27;20296;-62
2023/09/04 08:34:34;;;;;;;1.07;1.07;;;;;19.90;96942.00;;;;5134627;27;20657;-62
2023/09/04 08:37:02;;;;;;;1.00;1.00;;;;;20.00;96947.00;;;;5133575;27;20220;-62
2023/09/04 08:39:29;;;;;;;0.73;0.73;;;;;20.10;96940.00;;;;5134018;27;20272;-62
2023/09/04 08:41:57;;;;;;;1.13;1.03;;;;;20.20;96942.00;;;;5133700;27;20193;-62
2023/09/04 08:44:25;;;;;;;0.87;0.87;;;;;20.30;96947.00;;;;5133354;27;20196;-62
2023/09/04 08:46:58;;;;;;;0.90;0.90;;;;;20.30;96939.00;;;;5133570;27;20214;-62
2023/09/04 08:49:26;;;;;;;1.00;0.90;;;;;20.40;96944.00;;;;5133685;27;20185;-61
2023/09/04 08:51:56;;;;;;;1.10;1.10;;;;;20.40;96936.00;;;;5132642;27;20227;-61
2023/09/04 08:54:24;;;;;;;0.70;0.70;;;;;20.60;96940.00;;;;5131400;27;20550;-61
2023/09/04 08:56:52;;;;;;;1.27;0.90;;;;;20.50;96931.00;;;;5132686;27;20707;-62
2023/09/04 08:59:19;;;;;;;0.80;0.80;;;;;20.60;96929.00;;;;5133223;27;20197;-62
2023/09/04 09:01:47;;;;;;;1.23;1.13;;;;;20.90;96924.00;;;;5133155;27;20189;-62
2023/09/04 09:04:19;;;;;;;0.77;0.77;;;;;20.90;96937.00;;;;5133268;27;20193;-62
2023/09/04 09:06:48;;;;;;;0.80;0.80;;;;;20.80;96935.00;;;;5133819;27;20240;-62
2023/09/04 09:09:17;;;;;;;0.70;0.70;;;;;21.10;96943.00;;;;5133285;27;20263;-62
2023/09/04 09:11:44;;;;;;;1.00;1.00;;;;;21.10;96944.00;;;;5133758;27;20209;-62
2023/09/04 09:14:14;;;;;;;0.57;0.57;;;;;21.20;96943.00;;;;5131859;27;20197;-62
2023/09/04 09:16:41;;;;;;;3.47;1.33;;;;;21.20;96939.00;;;;5127969;27;20213;-62
2023/09/04 09:19:10;;;;;;;0.83;0.83;;;;;21.20;96948.00;;;;5133374;27;20200;-62
2023/09/04 09:21:38;;;;;;;0.95;0.95;;;;;21.50;96950.00;;;;5133075;27;20220;-62
2023/09/04 09:24:17;;;;;;;0.90;0.90;;;;;21.30;96948.00;;;;5133264;27;20189;-62
2023/09/04 09:26:46;;;;;;;2.15;1.20;;;;;21.40;96946.00;;;;5127792;27;20293;-62
2023/09/04 09:29:14;;;;;;;0.80;0.80;;;;;21.50;96946.00;;;;5133630;27;20564;-62
2023/09/04 09:31:45;;;;;;;0.90;0.90;;;;;21.60;96948.00;;;;5132492;27;20292;-62
2023/09/04 09:34:13;;;;;;;1.05;1.05;;;;;21.60;96935.00;;;;5133201;27;20192;-62
2023/09/04 09:36:41;;;;;;;1.33;1.25;;;;;21.70;96942.00;;;;5132823;27;20704;-62
2023/09/04 09:39:09;;;;;;;0.85;0.85;;;;;21.90;96940.00;;;;5131509;27;20614;-62
2023/09/04 09:41:36;;;;;;;2.55;1.13;;;;;21.80;96941.00;;;;5132914;27;20273;-62
2023/09/04 09:44:05;;;;;;;1.20;1.05;;;;;22.00;96932.00;;;;5132718;27;20209;-62
2023/09/04 09:46:37;;;;;;;0.93;0.93;;;;;22.00;96935.00;;;;5132625;27;20768;-62
2023/09/04 09:49:06;;;;;;;0.75;0.75;;;;;22.10;96938.00;;;;5132870;27;20213;-62
2023/09/04 09:51:35;;;;;;;0.70;0.70;;;;;22.30;96936.00;;;;5131444;27;20217;-61
2023/09/04 09:54:05;;;;;;;0.70;0.70;;;;;22.30;96934.00;;;;5131850;27;20189;-60
2023/09/04 09:56:33;;;;;;;0.98;0.98;;;;;22.50;96926.00;;;;5131701;27;20213;-60
2023/09/04 09:59:02;;;;;;;0.88;0.88;;;;;22.50;96925.00;;;;5131717;27;20201;-62
2023/09/04 10:01:31;;;;;;;1.15;1.05;;;;;22.40;96915.00;;;;5131570;27;20543;-61
2023/09/04 10:04:00;;;;;;;1.10;1.10;;;;;22.80;96914.00;;;;5131497;27;20225;-61
2023/09/04 10:06:34;;;;;;;1.52;1.10;;;;;23.00;96912.00;;;;5132175;27;20224;-61
2023/09/04 10:09:05;;;;;;;0.80;0.80;;;;;23.10;96914.00;;;;5132296;27;20206;-61
2023/09/04 10:11:36;;;;;;;0.82;0.82;;;;;23.40;96905.00;;;;5128089;27;20233;-61
2023/09/04 10:14:10;;;;;;;0.75;0.75;;;;;23.40;96894.00;;;;5132023;27;20630;-61
2023/09/04 10:16:41;;;;;;;3.88;0.90;;;;;23.30;96902.00;;;;5131693;27;20696;-62
2023/09/04 10:19:12;;;;;;;0.90;0.80;;;;;23.30;96902.00;;;;5132569;27;20197;-63
2023/09/04 10:21:47;;;;;;;0.40;0.40;;;;;23.50;96897.00;;;;5130307;27;20193;-63
2023/09/04 10:24:24;;;;;;;0.93;0.93;;;;;23.50;96897.00;;;;5132910;27;20192;-62
2023/09/04 10:26:58;;;;;;;0.68;0.68;;;;;23.70;96896.00;;;;5129300;27;20311;-62
2023/09/04 10:29:30;;;;;;;1.33;1.23;;;;;24.10;96886.00;;;;5132936;28;20282;-63
2023/09/04 10:31:58;;;;;;;1.48;1.38;;;;;24.00;96883.00;;;;5131764;28;20210;-62
2023/09/04 10:34:26;;;;;;;1.88;1.77;;;;;24.10;96885.00;;;;5132388;28;20193;-63
2023/09/04 10:36:54;;;;;;;1.48;0.93;;;;;24.20;96877.00;;;;5131843;28;20228;-62
2023/09/04 10:39:24;;;;;;;0.88;0.88;;;;;24.40;96876.00;;;;5132330;27;20197;-64
2023/09/04 10:41:52;;;;;;;1.20;1.10;;;;;24.60;96875.00;;;;5135335;27;20190;-63
2023/09/04 10:44:45;;;;;;;0.85;0.85;;;;;24.50;96881.00;;;;5136568;27;20189;-63
2023/09/04 10:47:13;;;;;;;0.90;0.90;;;;;24.50;96884.00;;;;5134489;27;20273;-62
2023/09/04 10:49:41;;;;;;;0.70;0.70;;;;;24.90;96883.00;;;;5135319;27;20189;-62
2023/09/04 10:52:09;;;;;;;5.28;1.10;;;;;25.00;96880.00;;;;5135059;27;20213;-62
2023/09/04 10:54:39;;;;;;;1.20;1.10;;;;;25.10;96871.00;;;;5136633;27;20649;-62
2023/09/04 10:57:10;;;;;;;1.05;1.05;;;;;25.40;96873.00;;;;5135323;27;20266;-62
2023/09/04 11:00:00;;;;;;;1.33;1.10;;;;;25.30;96871.00;;;;5135521;27;20220;-62
2023/09/04 11:02:29;;;;;;;1.02;1.02;;;;;25.60;96866.00;;;;5130479;27;20189;-62
2023/09/04 11:04:57;;;;;;;1.13;1.13;;;;;25.70;96871.00;;;;5136267;27;20201;-62
2023/09/04 11:07:32;;;;;;;1.50;1.15;;;;;25.50;96863.00;;;;5135027;27;20629;-62
2023/09/04 11:10:34;;;;;;;0.82;0.82;;;;;25.70;96859.00;;;;5135011;27;20201;-61
2023/09/04 11:13:02;;;;;;;0.77;0.77;;;;;25.70;96857.00;;;;5134679;27;20220;-62
2023/09/04 11:15:29;;;;;;;1.23;1.15;;;;;25.80;96855.00;;;;5134863;27;20200;-63
2023/09/04 11:17:57;;;;;;;1.70;1.08;;;;;25.80;96851.00;;;;5134994;27;20218;-62
2023/09/04 11:20:27;;;;;;;1.25;1.15;;;;;25.70;96856.00;;;;5135458;27;20208;-62
2023/09/04 11:22:57;;;;;;;0.90;0.90;;;;;25.80;96848.00;;;;5134407;27;20182;-62
2023/09/04 11:25:25;;;;;;;1.15;1.15;;;;;25.80;96853.00;;;;5135511;27;20185;-62
2023/09/04 11:27:53;;;;;;;2.17;1.55;;;;;26.00;96846.00;;;;5134729;27;20590;-62
2023/09/04 11:30:21;;;;;;;0.70;0.70;;;;;26.00;96839.00;;;;5133642;27;20193;-62
2023/09/04 11:32:49;;;;;;;0.70;0.70;;;;;26.00;96834.00;;;;5134633;27;20216;-62
2023/09/04 11:35:16;;;;;;;1.20;1.20;;;;;25.90;96834.00;;;;5136020;27;20200;-63
2023/09/04 11:37:44;;;;;;;1.30;1.20;;;;;26.10;96834.00;;;;5133918;27;20217;-63
2023/09/04 11:40:12;;;;;;;1.73;0.75;;;;;26.30;96825.00;;;;5135517;27;20204;-63
2023/09/04 11:42:40;;;;;;;1.27;1.17;;;;;26.30;96830.00;;;;5134996;27;20193;-63
2023/09/04 11:45:09;;;;;;;0.80;0.80;;;;;26.60;96824.00;;;;5135384;27;20216;-63
2023/09/04 11:47:36;;;;;;;1.30;1.20;;;;;26.50;96814.00;;;;5134919;27;20221;-63
2023/09/04 11:50:06;;;;;;;0.90;0.90;;;;;26.60;96816.00;;;;5134765;27;21064;-63
2023/09/04 11:52:33;;;;;;;0.50;0.50;;;;;26.80;96820.00;;;;5132173;27;20217;-62
2023/09/04 11:55:02;;;;;;;0.65;0.65;;;;;26.90;96822.00;;;;5135090;27;20201;-62
2023/09/04 11:57:30;;;;;;;1.05;1.05;;;;;27.10;96814.00;;;;5133962;27;20228;-62
2023/09/04 11:59:59;;;;;;;0.70;0.70;;;;;27.30;96816.00;;;;5134889;27;20653;-62
2023/09/04 12:02:27;;;;;;;1.33;1.23;;;;;27.20;96815.00;;;;5135305;27;20193;-62
2023/09/04 12:04:56;;;;;;;1.23;1.13;;;;;27.20;96817.00;;;;5134892;27;20660;-62
2023/09/04 12:07:23;;;;;;;0.80;0.80;;;;;27.30;96814.00;;;;5133811;27;20305;-62
2023/09/04 12:09:51;;;;;;;0.70;0.70;;;;;27.50;96814.00;;;;5134298;27;20204;-62
2023/09/04 12:12:20;;;;;;;0.95;0.95;;;;;27.60;96816.00;;;;5135803;27;20235;-62
2023/09/04 12:14:47;;;;;;;1.15;1.05;;;;;27.50;96817.00;;;;5134273;27;20276;-62
2023/09/04 12:17:16;;;;;;;1.10;1.05;;;;;27.30;96814.00;;;;5130107;27;20661;-62
2023/09/04 12:19:44;;;;;;;1.00;1.00;;;;;27.50;96814.00;;;;5134854;27;20193;-63
2023/09/04 12:22:12;;;;;;;1.35;1.27;;;;;27.50;96805.00;;;;5134375;27;20533;-62
2023/09/04 12:24:40;;;;;;;1.17;1.08;;;;;27.90;96799.00;;;;5134788;27;20278;-62